sensor_id;sensor_type;location;lat;lon;timestamp;pressure;altitude;pressure_sealevel;temperature;humidity
73143;BME280;61343;53.694;9.988;2022-08-04T00:02:37;101199.47;;;21.69;81.63
73143;BME280;61343;53.694;9.988;2022-08-04T00:05:05;101198.63;;;21.74;81.27
73143;BME280;61343;53.694;9.988;2022-08-04T00:08:05;101201.06;;;21.81;80.98
73143;BME280;61343;53.694;9.988;2022-08-04T00:10:32;101199.97;;;21.77;81.77
73143;BME280;61343;53.694;9.988;2022-08-04T00:13:02;101194.25;;;21.73;82.24
73143;BME280;61343;53.694;9.988;2022-08-04T00:15:31;101195.63;;;21.76;82.25
73143;BME280;61343;53.694;9.988;2022-08-04T00:18:04;101198.06;;;21.77;82.06
73143;BME280;61343;53.694;9.988;2022-08-04T00:20:36;101190.75;;;21.67;82.86
73143;BME280;61343;53.694;9.988;2022-08-04T00:23:03;101187.75;;;21.69;82.70
73143;BME280;61343;53.694;9.988;2022-08-04T00:25:30;101195.63;;;21.70;82.21
73143;BME280;61343;53.694;9.988;2022-08-04T00:27:55;101192.38;;;21.68;82.49
73143;BME280;61343;53.694;9.988;2022-08-04T00:30:21;101187.75;;;21.69;82.32
73143;BME280;61343;53.694;9.988;2022-08-04T00:32:46;101183.69;;;21.66;82.41
73143;BME280;61343;53.694;9.988;2022-08-04T00:35:13;101186.13;;;21.68;82.12
73143;BME280;61343;53.694;9.988;2022-08-04T00:37:39;101188.31;;;21.66;82.42
73143;BME280;61343;53.694;9.988;2022-08-04T00:43:12;101181.78;;;21.62;82.32
73143;BME280;61343;53.694;9.988;2022-08-04T00:46:00;101180.94;;;21.61;82.34
73143;BME280;61343;53.694;9.988;2022-08-04T00:51:10;101166.53;;;21.56;82.27
73143;BME280;61343;53.694;9.988;2022-08-04T00:53:53;101180.16;;;21.51;82.74
73143;BME280;61343;53.694;9.988;2022-08-04T00:56:30;101174.72;;;21.51;82.43
73143;BME280;61343;53.694;9.988;2022-08-04T00:59:38;101165.22;;;21.48;82.50
73143;BME280;61343;53.694;9.988;2022-08-04T01:05:24;101164.38;;;21.48;82.36
73143;BME280;61343;53.694;9.988;2022-08-04T01:08:14;101163.56;;;21.47;82.36
73143;BME280;61343;53.694;9.988;2022-08-04T01:10:55;101165.50;;;21.42;82.44
73143;BME280;61343;53.694;9.988;2022-08-04T01:16:26;101164.41;;;21.38;81.98
73143;BME280;61343;53.694;9.988;2022-08-04T01:21:58;101154.06;;;21.35;82.14
73143;BME280;61343;53.694;9.988;2022-08-04T01:27:00;101150.78;;;21.38;82.06
73143;BME280;61343;53.694;9.988;2022-08-04T01:29:30;101151.34;;;21.35;82.03
73143;BME280;61343;53.694;9.988;2022-08-04T01:32:06;101153.28;;;21.24;82.50
73143;BME280;61343;53.694;9.988;2022-08-04T01:34:47;101144.59;;;21.22;82.55
73143;BME280;61343;53.694;9.988;2022-08-04T01:37:40;101145.09;;;21.14;82.91
73143;BME280;61343;53.694;9.988;2022-08-04T01:40:12;101133.69;;;21.12;82.87
73143;BME280;61343;53.694;9.988;2022-08-04T01:42:40;101134.53;;;21.12;82.54
73143;BME280;61343;53.694;9.988;2022-08-04T01:45:07;101136.97;;;21.09;82.95
73143;BME280;61343;53.694;9.988;2022-08-04T01:47:35;101125.78;;;21.00;83.27
73143;BME280;61343;53.694;9.988;2022-08-04T01:50:05;101138.31;;;21.06;82.51
73143;BME280;61343;53.694;9.988;2022-08-04T01:52:34;101126.06;;;21.04;83.01
73143;BME280;61343;53.694;9.988;2022-08-04T01:55:03;101131.75;;;21.02;83.13
73143;BME280;61343;53.694;9.988;2022-08-04T01:57:31;101128.50;;;21.05;82.53
73143;BME280;61343;53.694;9.988;2022-08-04T01:59:58;101128.50;;;21.05;82.48
73143;BME280;61343;53.694;9.988;2022-08-04T02:02:23;101126.06;;;21.04;82.51
73143;BME280;61343;53.694;9.988;2022-08-04T02:04:49;101124.69;;;21.06;82.49
73143;BME280;61343;53.694;9.988;2022-08-04T02:08:10;101118.44;;;21.06;82.34
73143;BME280;61343;53.694;9.988;2022-08-04T02:16:02;101117.63;;;21.00;82.76
73143;BME280;61343;53.694;9.988;2022-08-04T02:18:33;101114.09;;;21.00;82.34
73143;BME280;61343;53.694;9.988;2022-08-04T02:21:02;101112.47;;;20.99;82.43
73143;BME280;61343;53.694;9.988;2022-08-04T02:25:59;101106.78;;;20.95;82.75
73143;BME280;61343;53.694;9.988;2022-08-04T02:28:37;101111.66;;;20.98;82.17
73143;BME280;61343;53.694;9.988;2022-08-04T02:31:12;101114.91;;;21.00;82.17
73143;BME280;61343;53.694;9.988;2022-08-04T02:33:43;101107.84;;;20.99;81.99
73143;BME280;61343;53.694;9.988;2022-08-04T02:36:13;101106.78;;;20.95;81.60
73143;BME280;61343;53.694;9.988;2022-08-04T02:41:15;101109.22;;;20.92;81.99
73143;BME280;61343;53.694;9.988;2022-08-04T02:43:42;101109.47;;;20.90;81.64
73143;BME280;61343;53.694;9.988;2022-08-04T02:46:12;101110.00;;;20.87;81.86
73143;BME280;61343;53.694;9.988;2022-08-04T02:48:39;101106.50;;;20.87;81.60
73143;BME280;61343;53.694;9.988;2022-08-04T02:51:06;101096.97;;;20.79;82.27
73143;BME280;61343;53.694;9.988;2022-08-04T02:53:32;101103.53;;;20.78;81.96
73143;BME280;61343;53.694;9.988;2022-08-04T02:55:59;101109.50;;;20.80;82.18
73143;BME280;61343;53.694;9.988;2022-08-04T02:58:30;101099.69;;;20.79;81.95
73143;BME280;61343;53.694;9.988;2022-08-04T03:00:58;101095.09;;;20.80;82.29
73143;BME280;61343;53.694;9.988;2022-08-04T03:17:29;101085.03;;;20.80;82.40
73143;BME280;61343;53.694;9.988;2022-08-04T03:31:46;101083.09;;;20.91;81.45
73143;BME280;61343;53.694;9.988;2022-08-04T03:40:08;101083.94;;;20.81;81.67
73143;BME280;61343;53.694;9.988;2022-08-04T04:00:08;101076.63;;;20.67;81.67
73143;BME280;61343;53.694;9.988;2022-08-04T04:19:21;101077.94;;;20.79;81.12
73143;BME280;61343;53.694;9.988;2022-08-04T04:27:55;101082.84;;;20.82;81.08
73143;BME280;61343;53.694;9.988;2022-08-04T04:30:18;101085.28;;;20.89;81.00
73143;BME280;61343;53.694;9.988;2022-08-04T04:33:26;101082.00;;;20.97;80.32
73143;BME280;61343;53.694;9.988;2022-08-04T04:36:12;101080.66;;;20.99;80.39
73143;BME280;61343;53.694;9.988;2022-08-04T04:38:51;101083.94;;;21.01;80.38
73143;BME280;61343;53.694;9.988;2022-08-04T04:47:12;101084.47;;;21.19;79.97
73143;BME280;61343;53.694;9.988;2022-08-04T04:52:25;101064.84;;;21.27;79.68
73143;BME280;61343;53.694;9.988;2022-08-04T04:55:01;101064.31;;;21.30;79.77
73143;BME280;61343;53.694;9.988;2022-08-04T04:57:30;101066.22;;;21.34;79.96
73143;BME280;61343;53.694;9.988;2022-08-04T05:00:03;101064.84;;;21.37;79.54
73143;BME280;61343;53.694;9.988;2022-08-04T05:13:48;101063.06;;;21.71;78.15
73143;BME280;61343;53.694;9.988;2022-08-04T05:19:17;101061.63;;;21.89;77.43
73143;BME280;61343;53.694;9.988;2022-08-04T05:21:48;101066.47;;;21.97;77.22
73143;BME280;61343;53.694;9.988;2022-08-04T05:24:17;101068.91;;;22.03;76.93
73143;BME280;61343;53.694;9.988;2022-08-04T05:26:47;101066.41;;;22.12;76.72
73143;BME280;61343;53.694;9.988;2022-08-04T05:29:29;101058.44;;;22.20;76.46
73143;BME280;61343;53.694;9.988;2022-08-04T05:31:58;101060.03;;;22.27;76.13
73143;BME280;61343;53.694;9.988;2022-08-04T05:34:28;101050.47;;;22.29;75.98
73143;BME280;61343;53.694;9.988;2022-08-04T05:36:57;101060.50;;;22.39;75.41
73143;BME280;61343;53.694;9.988;2022-08-04T05:39:30;101045.97;;;22.48;75.06
73143;BME280;61343;53.694;9.988;2022-08-04T05:41:57;101059.25;;;22.60;74.68
73143;BME280;61343;53.694;9.988;2022-08-04T05:44:25;101055.41;;;22.66;74.66
73143;BME280;61343;53.694;9.988;2022-08-04T05:46:54;101055.03;;;22.77;74.00
73143;BME280;61343;53.694;9.988;2022-08-04T05:49:21;101045.94;;;22.87;73.43
73143;BME280;61343;53.694;9.988;2022-08-04T05:51:47;101047.47;;;22.98;73.52
73143;BME280;61343;53.694;9.988;2022-08-04T05:54:14;101045.50;;;23.04;72.61
73143;BME280;61343;53.694;9.988;2022-08-04T05:56:41;101045.16;;;23.10;72.63
73143;BME280;61343;53.694;9.988;2022-08-04T05:59:07;101044.25;;;23.20;72.73
73143;BME280;61343;53.694;9.988;2022-08-04T06:01:37;101040.56;;;23.29;72.55
73143;BME280;61343;53.694;9.988;2022-08-04T06:04:04;101036.47;;;23.32;71.92
73143;BME280;61343;53.694;9.988;2022-08-04T06:06:30;101038.84;;;23.39;72.03
73143;BME280;61343;53.694;9.988;2022-08-04T06:08:56;101040.38;;;23.50;71.52
73143;BME280;61343;53.694;9.988;2022-08-04T06:11:25;101044.59;;;23.61;71.21
73143;BME280;61343;53.694;9.988;2022-08-04T06:13:55;101037.97;;;23.67;70.81
73143;BME280;61343;53.694;9.988;2022-08-04T06:16:22;101038.34;;;23.79;70.40
73143;BME280;61343;53.694;9.988;2022-08-04T06:18:50;101033.13;;;23.82;69.50
73143;BME280;61343;53.694;9.988;2022-08-04T06:21:20;101033.41;;;23.81;69.44
73143;BME280;61343;53.694;9.988;2022-08-04T06:23:47;101038.34;;;23.98;69.47
73143;BME280;61343;53.694;9.988;2022-08-04T06:26:14;101036.28;;;24.08;69.19
73143;BME280;61343;53.694;9.988;2022-08-04T06:28:46;101033.41;;;24.18;69.15
73143;BME280;61343;53.694;9.988;2022-08-04T06:31:14;101032.47;;;24.28;69.06
73143;BME280;61343;53.694;9.988;2022-08-04T06:33:48;101034.91;;;24.29;67.81
73143;BME280;61343;53.694;9.988;2022-08-04T06:36:15;101030.69;;;24.37;67.51
73143;BME280;61343;53.694;9.988;2022-08-04T06:38:40;101032.94;;;24.49;67.05
73143;BME280;61343;53.694;9.988;2022-08-04T06:41:07;101035.50;;;24.59;66.63
73143;BME280;61343;53.694;9.988;2022-08-04T06:43:35;101027.13;;;24.69;66.82
73143;BME280;61343;53.694;9.988;2022-08-04T06:46:03;101017.63;;;24.80;66.29
73143;BME280;61343;53.694;9.988;2022-08-04T06:48:30;101021.31;;;24.89;65.99
73143;BME280;61343;53.694;9.988;2022-08-04T06:50:57;101024.97;;;24.98;66.06
73143;BME280;61343;53.694;9.988;2022-08-04T06:53:23;101024.78;;;25.08;65.55
73143;BME280;61343;53.694;9.988;2022-08-04T06:55:50;101023.47;;;25.19;65.40
73143;BME280;61343;53.694;9.988;2022-08-04T06:58:18;101018.69;;;25.25;65.32
73143;BME280;61343;53.694;9.988;2022-08-04T07:00:45;101017.19;;;25.32;64.69
73143;BME280;61343;53.694;9.988;2022-08-04T07:03:11;101025.19;;;25.42;64.59
73143;BME280;61343;53.694;9.988;2022-08-04T07:05:38;101019.03;;;25.50;64.84
73143;BME280;61343;53.694;9.988;2022-08-04T07:08:04;101015.25;;;25.60;64.62
73143;BME280;61343;53.694;9.988;2022-08-04T07:10:30;101011.81;;;25.68;62.98
73143;BME280;61343;53.694;9.988;2022-08-04T07:12:57;101017.88;;;25.79;63.10
73143;BME280;61343;53.694;9.988;2022-08-04T07:15:23;101019.25;;;25.90;62.87
73143;BME280;61343;53.694;9.988;2022-08-04T07:17:50;101008.06;;;26.00;62.56
73143;BME280;61343;53.694;9.988;2022-08-04T07:20:15;101005.19;;;26.05;61.43
73143;BME280;61343;53.694;9.988;2022-08-04T07:22:42;101017.56;;;26.16;61.52
73143;BME280;61343;53.694;9.988;2022-08-04T07:25:09;101015.69;;;26.25;60.79
73143;BME280;61343;53.694;9.988;2022-08-04T07:27:35;101006.75;;;26.33;60.33
73143;BME280;61343;53.694;9.988;2022-08-04T07:30:02;101009.25;;;26.21;59.91
73143;BME280;61343;53.694;9.988;2022-08-04T07:32:28;101011.88;;;26.13;59.73
73143;BME280;61343;53.694;9.988;2022-08-04T07:34:54;101008.63;;;26.11;60.24
73143;BME280;61343;53.694;9.988;2022-08-04T07:37:20;101004.88;;;26.20;60.26
73143;BME280;61343;53.694;9.988;2022-08-04T07:39:45;101004.50;;;26.35;59.80
73143;BME280;61343;53.694;9.988;2022-08-04T07:42:11;100995.88;;;26.50;59.09
73143;BME280;61343;53.694;9.988;2022-08-04T07:44:37;100999.22;;;26.70;58.43
73143;BME280;61343;53.694;9.988;2022-08-04T07:47:05;100998.22;;;26.88;57.97
73143;BME280;61343;53.694;9.988;2022-08-04T07:49:31;100993.94;;;27.04;57.65
73143;BME280;61343;53.694;9.988;2022-08-04T07:51:56;100998.03;;;27.24;56.93
73143;BME280;61343;53.694;9.988;2022-08-04T07:54:22;100987.91;;;27.41;56.49
73143;BME280;61343;53.694;9.988;2022-08-04T07:56:48;100995.72;;;27.56;56.60
73143;BME280;61343;53.694;9.988;2022-08-04T07:59:15;100992.81;;;27.61;55.59
73143;BME280;61343;53.694;9.988;2022-08-04T08:01:41;100987.97;;;27.76;56.15
73143;BME280;61343;53.694;9.988;2022-08-04T08:04:09;100989.59;;;27.94;54.74
73143;BME280;61343;53.694;9.988;2022-08-04T08:06:38;100992.06;;;28.12;53.13
73143;BME280;61343;53.694;9.988;2022-08-04T08:09:16;100988.16;;;28.31;52.22
73143;BME280;61343;53.694;9.988;2022-08-04T08:11:43;100989.91;;;28.35;50.81
73143;BME280;61343;53.694;9.988;2022-08-04T08:14:09;100989.91;;;28.44;51.05
73143;BME280;61343;53.694;9.988;2022-08-04T08:16:35;100993.16;;;28.37;50.69
73143;BME280;61343;53.694;9.988;2022-08-04T08:19:02;100996.03;;;28.49;50.01
73143;BME280;61343;53.694;9.988;2022-08-04T08:21:27;100989.88;;;28.61;49.96
73143;BME280;61343;53.694;9.988;2022-08-04T08:23:53;100990.66;;;28.78;49.84
73143;BME280;61343;53.694;9.988;2022-08-04T08:26:19;100979.91;;;28.94;48.87
73143;BME280;61343;53.694;9.988;2022-08-04T08:28:45;100984.53;;;29.11;48.74
73143;BME280;61343;53.694;9.988;2022-08-04T08:31:11;100989.19;;;29.19;48.58
73143;BME280;61343;53.694;9.988;2022-08-04T08:33:36;100979.09;;;29.31;48.05
73143;BME280;61343;53.694;9.988;2022-08-04T08:36:22;100982.84;;;29.27;47.18
73143;BME280;61343;53.694;9.988;2022-08-04T08:39:08;100975.13;;;29.12;47.28
73143;BME280;61343;53.694;9.988;2022-08-04T08:50:26;100973.25;;;29.33;45.61
73143;BME280;61343;53.694;9.988;2022-08-04T08:53:07;100964.31;;;29.36;45.98
73143;BME280;61343;53.694;9.988;2022-08-04T08:55:44;100966.78;;;29.29;46.15
73143;BME280;61343;53.694;9.988;2022-08-04T09:06:36;100950.72;;;30.02;45.18
73143;BME280;61343;53.694;9.988;2022-08-04T09:14:34;100946.25;;;30.42;44.19
73143;BME280;61343;53.694;9.988;2022-08-04T09:17:06;100947.41;;;30.41;43.01
73143;BME280;61343;53.694;9.988;2022-08-04T09:19:44;100944.69;;;30.20;43.72
73143;BME280;61343;53.694;9.988;2022-08-04T09:22:35;100948.00;;;30.47;44.40
73143;BME280;61343;53.694;9.988;2022-08-04T09:25:11;100936.06;;;30.55;43.18
73143;BME280;61343;53.694;9.988;2022-08-04T09:27:46;100940.44;;;30.68;42.21
73143;BME280;61343;53.694;9.988;2022-08-04T09:30:18;100943.41;;;30.51;42.05
73143;BME280;61343;53.694;9.988;2022-08-04T09:33:06;100932.28;;;30.71;41.28
73143;BME280;61343;53.694;9.988;2022-08-04T09:35:46;100929.31;;;30.76;41.69
73143;BME280;61343;53.694;9.988;2022-08-04T09:38:43;100937.84;;;30.95;41.38
73143;BME280;61343;53.694;9.988;2022-08-04T09:47:09;100935.28;;;31.27;39.43
73143;BME280;61343;53.694;9.988;2022-08-04T09:49:43;100928.34;;;31.45;38.84
73143;BME280;61343;53.694;9.988;2022-08-04T09:52:27;100925.69;;;31.61;38.61
73143;BME280;61343;53.694;9.988;2022-08-04T09:55:10;100920.59;;;31.63;37.25
73143;BME280;61343;53.694;9.988;2022-08-04T09:57:50;100918.34;;;31.53;35.61
73143;BME280;61343;53.694;9.988;2022-08-04T10:00:18;100912.22;;;31.59;34.89
73143;BME280;61343;53.694;9.988;2022-08-04T10:02:58;100911.34;;;31.98;34.93
73143;BME280;61343;53.694;9.988;2022-08-04T10:05:29;100913.31;;;32.26;34.86
73143;BME280;61343;53.694;9.988;2022-08-04T10:08:19;100918.84;;;32.26;34.05
73143;BME280;61343;53.694;9.988;2022-08-04T10:13:41;100913.31;;;32.26;32.75
73143;BME280;61343;53.694;9.988;2022-08-04T10:19:00;100902.03;;;32.62;32.07
73143;BME280;61343;53.694;9.988;2022-08-04T10:21:44;100895.50;;;32.70;32.69
73143;BME280;61343;53.694;9.988;2022-08-04T10:26:50;100895.56;;;32.42;34.23
73143;BME280;61343;53.694;9.988;2022-08-04T10:29:26;100892.59;;;32.51;35.29
73143;BME280;61343;53.694;9.988;2022-08-04T10:32:03;100896.25;;;32.39;34.00
73143;BME280;61343;53.694;9.988;2022-08-04T10:34:42;100886.56;;;32.61;32.92
73143;BME280;61343;53.694;9.988;2022-08-04T10:37:25;100890.69;;;32.83;32.62
73143;BME280;61343;53.694;9.988;2022-08-04T10:40:02;100893.25;;;32.60;33.59
73143;BME280;61343;53.694;9.988;2022-08-04T10:42:58;100893.94;;;32.26;34.75
73143;BME280;61343;53.694;9.988;2022-08-04T10:45:35;100897.94;;;32.13;36.03
73143;BME280;61343;53.694;9.988;2022-08-04T10:51:09;100877.06;;;32.31;36.42
73143;BME280;61343;53.694;9.988;2022-08-04T10:53:37;100874.88;;;32.68;35.69
73143;BME280;61343;53.694;9.988;2022-08-04T10:56:14;100874.97;;;32.71;35.31
73143;BME280;61343;53.694;9.988;2022-08-04T10:58:45;100868.13;;;32.84;35.64
73143;BME280;61343;53.694;9.988;2022-08-04T11:01:26;100862.56;;;33.00;35.46
73143;BME280;61343;53.694;9.988;2022-08-04T11:03:55;100861.38;;;33.17;36.06
73143;BME280;61343;53.694;9.988;2022-08-04T11:06:23;100864.81;;;33.48;34.45
73143;BME280;61343;53.694;9.988;2022-08-04T11:08:52;100854.13;;;33.47;33.23
73143;BME280;61343;53.694;9.988;2022-08-04T11:14:03;100857.75;;;33.32;32.03
73143;BME280;61343;53.694;9.988;2022-08-04T11:16:40;100850.19;;;33.67;32.59
73143;BME280;61343;53.694;9.988;2022-08-04T11:19:30;100846.75;;;33.74;33.11
73143;BME280;61343;53.694;9.988;2022-08-04T11:22:26;100846.53;;;33.82;32.33
73143;BME280;61343;53.694;9.988;2022-08-04T11:25:19;100842.84;;;33.97;32.43
73143;BME280;61343;53.694;9.988;2022-08-04T11:28:01;100837.16;;;33.90;32.50
73143;BME280;61343;53.694;9.988;2022-08-04T11:30:38;100838.84;;;33.95;30.66
73143;BME280;61343;53.694;9.988;2022-08-04T11:33:14;100832.66;;;33.82;31.45
73143;BME280;61343;53.694;9.988;2022-08-04T11:36:14;100829.97;;;34.08;30.39
73143;BME280;61343;53.694;9.988;2022-08-04T11:41:34;100835.16;;;33.68;29.62
73143;BME280;61343;53.694;9.988;2022-08-04T11:44:03;100837.06;;;33.45;29.90
73143;BME280;61343;53.694;9.988;2022-08-04T11:46:35;100835.97;;;33.69;30.36
73143;BME280;61343;53.694;9.988;2022-08-04T11:49:15;100823.75;;;33.73;30.66
73143;BME280;61343;53.694;9.988;2022-08-04T11:51:47;100829.16;;;33.85;30.24
73143;BME280;61343;53.694;9.988;2022-08-04T11:54:14;100832.19;;;34.22;30.66
73143;BME280;61343;53.694;9.988;2022-08-04T11:56:41;100821.94;;;33.61;29.62
73143;BME280;61343;53.694;9.988;2022-08-04T11:59:06;100829.31;;;33.54;30.23
73143;BME280;61343;53.694;9.988;2022-08-04T12:04:57;100824.84;;;33.11;30.87
73143;BME280;61343;53.694;9.988;2022-08-04T12:10:39;100824.50;;;33.13;30.05
73143;BME280;61343;53.694;9.988;2022-08-04T12:13:27;100823.75;;;33.16;30.28
73143;BME280;61343;53.694;9.988;2022-08-04T12:18:33;100819.47;;;33.02;30.99
73143;BME280;61343;53.694;9.988;2022-08-04T12:21:06;100816.22;;;33.54;29.65
73143;BME280;61343;53.694;9.988;2022-08-04T12:23:38;100812.00;;;34.02;29.31
73143;BME280;61343;53.694;9.988;2022-08-04T12:26:07;100813.78;;;33.91;28.44
73143;BME280;61343;53.694;9.988;2022-08-04T12:28:40;100805.50;;;34.37;28.88
73143;BME280;61343;53.694;9.988;2022-08-04T12:31:20;100797.56;;;34.61;29.13
73143;BME280;61343;53.694;9.988;2022-08-04T12:34:09;100792.38;;;34.86;28.02
73143;BME280;61343;53.694;9.988;2022-08-04T12:36:55;100791.78;;;34.73;26.89
73143;BME280;61343;53.694;9.988;2022-08-04T12:39:24;100793.66;;;34.92;27.03
73143;BME280;61343;53.694;9.988;2022-08-04T12:42:21;100797.47;;;34.58;27.47
73143;BME280;61343;53.694;9.988;2022-08-04T12:44:49;100788.88;;;34.40;26.69
73143;BME280;61343;53.694;9.988;2022-08-04T12:47:22;100788.97;;;34.21;27.21
73143;BME280;61343;53.694;9.988;2022-08-04T12:49:49;100794.84;;;34.65;26.63
73143;BME280;61343;53.694;9.988;2022-08-04T12:52:16;100795.16;;;34.86;27.19
73143;BME280;61343;53.694;9.988;2022-08-04T12:54:45;100780.28;;;35.01;26.63
73143;BME280;61343;53.694;9.988;2022-08-04T12:57:13;100773.81;;;35.23;26.41
73143;BME280;61343;53.694;9.988;2022-08-04T12:59:42;100777.44;;;35.27;25.83
73143;BME280;61343;53.694;9.988;2022-08-04T13:02:26;100768.66;;;35.25;26.72
73143;BME280;61343;53.694;9.988;2022-08-04T13:04:57;100772.31;;;35.29;26.15
73143;BME280;61343;53.694;9.988;2022-08-04T13:07:25;100758.44;;;35.33;26.11
73143;BME280;61343;53.694;9.988;2022-08-04T13:09:52;100771.94;;;35.31;25.31
73143;BME280;61343;53.694;9.988;2022-08-04T13:12:20;100767.66;;;35.07;26.51
73143;BME280;61343;53.694;9.988;2022-08-04T13:14:49;100763.09;;;35.25;26.40
73143;BME280;61343;53.694;9.988;2022-08-04T13:17:15;100756.63;;;35.14;26.26
73143;BME280;61343;53.694;9.988;2022-08-04T13:19:46;100765.38;;;35.13;26.26
73143;BME280;61343;53.694;9.988;2022-08-04T13:22:12;100759.53;;;34.39;26.54
73143;BME280;61343;53.694;9.988;2022-08-04T13:24:41;100756.69;;;34.36;27.78
73143;BME280;61343;53.694;9.988;2022-08-04T13:27:09;100754.06;;;34.72;26.46
73143;BME280;61343;53.694;9.988;2022-08-04T13:29:42;100766.28;;;34.94;26.58
73143;BME280;61343;53.694;9.988;2022-08-04T13:32:10;100759.84;;;35.16;26.93
73143;BME280;61343;53.694;9.988;2022-08-04T13:34:41;100747.53;;;34.88;26.38
73143;BME280;61343;53.694;9.988;2022-08-04T13:37:08;100741.16;;;34.57;26.96
73143;BME280;61343;53.694;9.988;2022-08-04T13:39:35;100743.47;;;34.29;27.28
73143;BME280;61343;53.694;9.988;2022-08-04T13:42:07;100736.81;;;34.34;28.28
73143;BME280;61343;53.694;9.988;2022-08-04T13:44:34;100733.34;;;34.66;27.97
73143;BME280;61343;53.694;9.988;2022-08-04T13:47:05;100738.31;;;34.80;26.97
73143;BME280;61343;53.694;9.988;2022-08-04T13:49:31;100724.66;;;34.68;27.21
73143;BME280;61343;53.694;9.988;2022-08-04T13:51:59;100725.81;;;34.67;27.80
73143;BME280;61343;53.694;9.988;2022-08-04T13:54:36;100727.94;;;34.51;27.41
73143;BME280;61343;53.694;9.988;2022-08-04T13:57:07;100716.19;;;34.61;26.94
73143;BME280;61343;53.694;9.988;2022-08-04T13:59:36;100711.16;;;34.70;27.35
73143;BME280;61343;53.694;9.988;2022-08-04T14:02:06;100701.69;;;34.45;27.86
73143;BME280;61343;53.694;9.988;2022-08-04T14:04:37;100709.78;;;34.57;27.67
73143;BME280;61343;53.694;9.988;2022-08-04T14:07:11;100705.41;;;34.56;27.69
73143;BME280;61343;53.694;9.988;2022-08-04T14:09:38;100703.50;;;34.60;27.69
73143;BME280;61343;53.694;9.988;2022-08-04T14:12:07;100699.94;;;34.59;27.95
73143;BME280;61343;53.694;9.988;2022-08-04T14:14:34;100696.97;;;34.22;27.50
73143;BME280;61343;53.694;9.988;2022-08-04T14:17:09;100701.38;;;34.24;28.21
73143;BME280;61343;53.694;9.988;2022-08-04T14:25:07;100696.22;;;34.82;27.89
73143;BME280;61343;53.694;9.988;2022-08-04T14:27:46;100699.53;;;34.35;31.77
73143;BME280;61343;53.694;9.988;2022-08-04T14:33:01;100723.72;;;33.43;38.30
73143;BME280;61343;53.694;9.988;2022-08-04T14:35:28;100727.28;;;32.86;39.71
73143;BME280;61343;53.694;9.988;2022-08-04T14:37:57;100730.78;;;32.64;40.47
73143;BME280;61343;53.694;9.988;2022-08-04T14:40:25;100734.94;;;32.39;40.20
73143;BME280;61343;53.694;9.988;2022-08-04T14:42:51;100738.75;;;32.34;39.60
73143;BME280;61343;53.694;9.988;2022-08-04T14:45:16;100731.81;;;32.25;40.51
73143;BME280;61343;53.694;9.988;2022-08-04T14:47:44;100740.19;;;32.13;40.98
73143;BME280;61343;53.694;9.988;2022-08-04T14:50:10;100743.75;;;31.82;42.95
73143;BME280;61343;53.694;9.988;2022-08-04T14:52:37;100758.13;;;31.44;44.05
73143;BME280;61343;53.694;9.988;2022-08-04T14:55:23;100762.44;;;31.02;45.79
73143;BME280;61343;53.694;9.988;2022-08-04T14:57:50;100774.69;;;30.76;47.30
73143;BME280;61343;53.694;9.988;2022-08-04T15:00:27;100788.72;;;30.47;48.60
73143;BME280;61343;53.694;9.988;2022-08-04T15:03:02;100790.97;;;30.21;50.02
73143;BME280;61343;53.694;9.988;2022-08-04T15:05:29;100799.91;;;30.06;50.79
73143;BME280;61343;53.694;9.988;2022-08-04T15:07:56;100812.25;;;29.75;52.42
73143;BME280;61343;53.694;9.988;2022-08-04T15:10:21;100825.19;;;29.63;53.88
73143;BME280;61343;53.694;9.988;2022-08-04T15:12:47;100840.63;;;29.43;55.32
73143;BME280;61343;53.694;9.988;2022-08-04T15:15:13;100825.53;;;29.20;55.08
73143;BME280;61343;53.694;9.988;2022-08-04T15:17:39;100824.78;;;29.11;55.20
73143;BME280;61343;53.694;9.988;2022-08-04T15:20:05;100834.56;;;29.00;54.54
73143;BME280;61343;53.694;9.988;2022-08-04T15:22:31;100830.28;;;28.90;54.86
73143;BME280;61343;53.694;9.988;2022-08-04T15:24:56;100820.69;;;28.67;55.11
73143;BME280;61343;53.694;9.988;2022-08-04T15:27:27;100817.84;;;28.55;54.55
73143;BME280;61343;53.694;9.988;2022-08-04T15:29:58;100825.16;;;28.42;54.13
73143;BME280;61343;53.694;9.988;2022-08-04T15:32:25;100835.75;;;28.23;54.15
73143;BME280;61343;53.694;9.988;2022-08-04T15:34:51;100845.84;;;28.10;54.12
73143;BME280;61343;53.694;9.988;2022-08-04T15:37:28;100852.78;;;27.99;53.37
73143;BME280;61343;53.694;9.988;2022-08-04T15:39:59;100863.63;;;27.87;53.84
73143;BME280;61343;53.694;9.988;2022-08-04T15:42:34;100878.69;;;27.73;54.21
73143;BME280;61343;53.694;9.988;2022-08-04T15:45:13;100888.56;;;27.56;54.48
73143;BME280;61343;53.694;9.988;2022-08-04T15:47:41;100896.81;;;27.56;54.37
73143;BME280;61343;53.694;9.988;2022-08-04T15:50:11;100899.34;;;27.19;55.30
73143;BME280;61343;53.694;9.988;2022-08-04T15:52:59;100898.78;;;26.91;54.36
73143;BME280;61343;53.694;9.988;2022-08-04T15:55:30;100924.91;;;26.57;54.90
73143;BME280;61343;53.694;9.988;2022-08-04T15:57:57;100957.00;;;26.26;55.09
73143;BME280;61343;53.694;9.988;2022-08-04T16:00:25;100968.81;;;26.13;56.13
73143;BME280;61343;53.694;9.988;2022-08-04T16:02:51;100974.78;;;25.93;56.98
73143;BME280;61343;53.694;9.988;2022-08-04T16:12:56;101041.81;;;24.40;64.32
73143;BME280;61343;53.694;9.988;2022-08-04T16:18:06;101046.84;;;23.96;69.44
73143;BME280;61343;53.694;9.988;2022-08-04T16:20:32;101025.91;;;23.68;70.43
73143;BME280;61343;53.694;9.988;2022-08-04T16:26:02;101044.59;;;23.61;75.78
73143;BME280;61343;53.694;9.988;2022-08-04T16:30:59;101057.09;;;23.43;76.91
73143;BME280;61343;53.694;9.988;2022-08-04T16:33:27;101068.97;;;23.28;79.13
73143;BME280;61343;53.694;9.988;2022-08-04T16:35:54;101064.72;;;23.46;80.04